Terminal Aerodrome Forecast
Issued by NWS

Home | Current Version | Previous Version | Graphics & Text | Print | Product List | Glossary On
Versions: 1 2 3 4 5 6 7 8 9 10 11 12 13
000
FTUS45 KGGW 201126
TAFSDY
TAF
KSDY 201126Z 2012/2112 20004KT P6SM FEW250
     FM210200 27012KT P6SM SCT150
     FM210400 29019G27KT P6SM SCT120
     FM210800 28017KT P6SM BKN090
     FM211000 27015G23KT P6SM SCT090=

USA.gov is the U.S. government's official web portal to all federal, state and local government web resources and services.